sensor_id;sensor_type;location;lat;lon;timestamp;pressure;altitude;pressure_sealevel;temperature;humidity
74649;BME280;63168;49.280;7.214;2023-04-15T00:00:38;97879.97;;;19.45;40.04
74649;BME280;63168;49.280;7.214;2023-04-15T00:03:03;97878.31;;;19.44;39.92
74649;BME280;63168;49.280;7.214;2023-04-15T00:05:32;97878.31;;;19.44;39.66
74649;BME280;63168;49.280;7.214;2023-04-15T00:07:58;97881.94;;;19.42;40.10
74649;BME280;63168;49.280;7.214;2023-04-15T00:10:24;97877.47;;;19.43;39.77
74649;BME280;63168;49.280;7.214;2023-04-15T00:12:50;97881.94;;;19.42;39.69
74649;BME280;63168;49.280;7.214;2023-04-15T00:15:16;97885.59;;;19.41;39.68
74649;BME280;63168;49.280;7.214;2023-04-15T00:17:42;97885.59;;;19.41;39.98
74649;BME280;63168;49.280;7.214;2023-04-15T00:20:08;97879.59;;;19.39;40.04
74649;BME280;63168;49.280;7.214;2023-04-15T00:22:34;97877.78;;;19.40;40.05
74649;BME280;63168;49.280;7.214;2023-04-15T00:25:00;97879.59;;;19.39;39.82
74649;BME280;63168;49.280;7.214;2023-04-15T00:27:26;97877.94;;;19.38;39.58
74649;BME280;63168;49.280;7.214;2023-04-15T00:29:53;97881.44;;;19.39;40.11
74649;BME280;63168;49.280;7.214;2023-04-15T00:32:18;97878.94;;;19.37;39.83
74649;BME280;63168;49.280;7.214;2023-04-15T00:34:44;97879.94;;;19.36;40.09
74649;BME280;63168;49.280;7.214;2023-04-15T00:37:09;97875.41;;;19.37;39.93
74649;BME280;63168;49.280;7.214;2023-04-15T00:39:35;97867.59;;;19.35;40.12
74649;BME280;63168;49.280;7.214;2023-04-15T00:42:01;97867.59;;;19.35;39.63
74649;BME280;63168;49.280;7.214;2023-04-15T00:44:26;97856.31;;;19.33;40.00
74649;BME280;63168;49.280;7.214;2023-04-15T00:46:54;97857.13;;;19.34;40.13
74649;BME280;63168;49.280;7.214;2023-04-15T00:49:20;97856.31;;;19.33;39.73
74649;BME280;63168;49.280;7.214;2023-04-15T00:51:45;97858.97;;;19.33;39.60
74649;BME280;63168;49.280;7.214;2023-04-15T00:54:11;97848.50;;;19.32;40.05
74649;BME280;63168;49.280;7.214;2023-04-15T00:56:37;97854.81;;;19.31;39.97
74649;BME280;63168;49.280;7.214;2023-04-15T00:59:03;97850.31;;;19.31;39.72
74649;BME280;63168;49.280;7.214;2023-04-15T01:01:28;97848.66;;;19.30;39.97
74649;BME280;63168;49.280;7.214;2023-04-15T01:03:56;97844.31;;;19.29;39.88
74649;BME280;63168;49.280;7.214;2023-04-15T01:06:24;97846.97;;;19.29;39.69
74649;BME280;63168;49.280;7.214;2023-04-15T01:08:51;97842.63;;;19.28;39.58
74649;BME280;63168;49.280;7.214;2023-04-15T01:11:17;97842.63;;;19.28;40.06
74649;BME280;63168;49.280;7.214;2023-04-15T01:13:43;97841.81;;;19.27;39.95
74649;BME280;63168;49.280;7.214;2023-04-15T01:16:08;97845.28;;;19.28;39.54
74649;BME280;63168;49.280;7.214;2023-04-15T01:18:34;97846.28;;;19.27;39.76
74649;BME280;63168;49.280;7.214;2023-04-15T01:21:04;97846.28;;;19.27;39.74
74649;BME280;63168;49.280;7.214;2023-04-15T01:23:30;97846.44;;;19.25;40.11
74649;BME280;63168;49.280;7.214;2023-04-15T01:25:56;97837.66;;;19.25;39.64
74649;BME280;63168;49.280;7.214;2023-04-15T01:28:23;97835.97;;;19.24;39.64
74649;BME280;63168;49.280;7.214;2023-04-15T01:30:49;97834.31;;;19.23;40.12
74649;BME280;63168;49.280;7.214;2023-04-15T01:33:15;97832.66;;;19.22;39.62
74649;BME280;63168;49.280;7.214;2023-04-15T01:35:40;97840.63;;;19.22;40.10
74649;BME280;63168;49.280;7.214;2023-04-15T01:38:08;97843.28;;;19.22;39.59
74649;BME280;63168;49.280;7.214;2023-04-15T01:40:34;97844.09;;;19.22;39.78
74649;BME280;63168;49.280;7.214;2023-04-15T01:43:01;97839.78;;;19.21;40.09
74649;BME280;63168;49.280;7.214;2023-04-15T01:45:26;97833.63;;;19.21;39.88
74649;BME280;63168;49.280;7.214;2023-04-15T01:47:52;97831.97;;;19.20;39.69
74649;BME280;63168;49.280;7.214;2023-04-15T01:50:18;97824.00;;;19.20;39.78
74649;BME280;63168;49.280;7.214;2023-04-15T01:52:44;97824.16;;;19.18;39.98
74649;BME280;63168;49.280;7.214;2023-04-15T01:55:11;97823.31;;;19.18;40.02
74649;BME280;63168;49.280;7.214;2023-04-15T01:57:37;97829.47;;;19.18;40.03
74649;BME280;63168;49.280;7.214;2023-04-15T02:00:05;97825.97;;;19.18;39.55
74649;BME280;63168;49.280;7.214;2023-04-15T02:02:32;97821.47;;;19.18;39.74
74649;BME280;63168;49.280;7.214;2023-04-15T02:04:57;97822.47;;;19.17;39.89
74649;BME280;63168;49.280;7.214;2023-04-15T02:07:23;97822.63;;;19.15;39.85
74649;BME280;63168;49.280;7.214;2023-04-15T02:09:48;97820.97;;;19.14;39.84
74649;BME280;63168;49.280;7.214;2023-04-15T02:12:14;97820.97;;;19.14;40.07
74649;BME280;63168;49.280;7.214;2023-04-15T02:14:39;97822.78;;;19.14;40.03
74649;BME280;63168;49.280;7.214;2023-04-15T02:17:06;97823.78;;;19.13;39.55
74649;BME280;63168;49.280;7.214;2023-04-15T02:19:32;97828.09;;;19.14;40.07
74649;BME280;63168;49.280;7.214;2023-04-15T02:21:58;97825.59;;;19.12;39.94
74649;BME280;63168;49.280;7.214;2023-04-15T02:24:25;97837.06;;;19.13;40.04
74649;BME280;63168;49.280;7.214;2023-04-15T02:26:50;97837.06;;;19.13;39.97
74649;BME280;63168;49.280;7.214;2023-04-15T02:29:16;97833.56;;;19.12;39.97
74649;BME280;63168;49.280;7.214;2023-04-15T02:31:41;97831.91;;;19.11;40.04
74649;BME280;63168;49.280;7.214;2023-04-15T02:34:09;97836.38;;;19.11;40.06
74649;BME280;63168;49.280;7.214;2023-04-15T02:36:34;97841.84;;;19.09;39.75
74649;BME280;63168;49.280;7.214;2023-04-15T02:39:00;97841.03;;;19.09;39.60
74649;BME280;63168;49.280;7.214;2023-04-15T02:41:25;97835.72;;;19.09;39.59
74649;BME280;63168;49.280;7.214;2023-04-15T02:43:52;97832.22;;;19.08;40.11
74649;BME280;63168;49.280;7.214;2023-04-15T02:46:18;97827.91;;;19.07;39.73
74649;BME280;63168;49.280;7.214;2023-04-15T02:48:43;97837.69;;;19.07;39.59
74649;BME280;63168;49.280;7.214;2023-04-15T02:51:15;97836.84;;;19.06;39.87
74649;BME280;63168;49.280;7.214;2023-04-15T02:53:41;97832.50;;;19.05;39.58
74649;BME280;63168;49.280;7.214;2023-04-15T02:56:06;97834.34;;;19.04;39.67
74649;BME280;63168;49.280;7.214;2023-04-15T02:58:32;97834.34;;;19.04;39.66
74649;BME280;63168;49.280;7.214;2023-04-15T03:00:59;97837.00;;;19.04;39.75
74649;BME280;63168;49.280;7.214;2023-04-15T03:03:24;97841.31;;;19.06;39.57
74649;BME280;63168;49.280;7.214;2023-04-15T03:05:50;97842.47;;;19.03;39.74
74649;BME280;63168;49.280;7.214;2023-04-15T03:08:17;97842.47;;;19.03;40.04
74649;BME280;63168;49.280;7.214;2023-04-15T03:10:43;97843.44;;;19.02;39.86
74649;BME280;63168;49.280;7.214;2023-04-15T03:13:08;97847.78;;;19.03;39.63
74649;BME280;63168;49.280;7.214;2023-04-15T03:15:33;97848.75;;;19.02;40.08
74649;BME280;63168;49.280;7.214;2023-04-15T03:17:59;97851.41;;;19.02;40.04
74649;BME280;63168;49.280;7.214;2023-04-15T03:20:24;97852.41;;;19.01;39.63
74649;BME280;63168;49.280;7.214;2023-04-15T03:22:50;97852.41;;;19.01;39.82
74649;BME280;63168;49.280;7.214;2023-04-15T03:25:16;97842.75;;;19.00;40.06
74649;BME280;63168;49.280;7.214;2023-04-15T03:27:42;97851.72;;;18.99;39.55
74649;BME280;63168;49.280;7.214;2023-04-15T03:30:08;97846.41;;;18.99;39.80
74649;BME280;63168;49.280;7.214;2023-04-15T03:32:33;97847.22;;;18.99;40.00
74649;BME280;63168;49.280;7.214;2023-04-15T03:34:59;97846.41;;;18.99;40.01
74649;BME280;63168;49.280;7.214;2023-04-15T03:37:24;97850.88;;;18.98;39.62
74649;BME280;63168;49.280;7.214;2023-04-15T03:39:50;97850.19;;;18.96;39.81
74649;BME280;63168;49.280;7.214;2023-04-15T03:42:17;97848.38;;;18.97;39.94
74649;BME280;63168;49.280;7.214;2023-04-15T03:44:42;97847.53;;;18.96;39.89
74649;BME280;63168;49.280;7.214;2023-04-15T03:47:07;97852.84;;;18.96;39.77
74649;BME280;63168;49.280;7.214;2023-04-15T03:49:33;97850.34;;;18.95;40.03
74649;BME280;63168;49.280;7.214;2023-04-15T03:51:58;97856.50;;;18.95;39.89
74649;BME280;63168;49.280;7.214;2023-04-15T03:54:24;97851.34;;;18.94;39.68
74649;BME280;63168;49.280;7.214;2023-04-15T03:56:49;97842.56;;;18.93;40.05
74649;BME280;63168;49.280;7.214;2023-04-15T03:59:16;97849.84;;;18.91;39.92
74649;BME280;63168;49.280;7.214;2023-04-15T04:01:42;97845.38;;;18.91;39.58
74649;BME280;63168;49.280;7.214;2023-04-15T04:04:07;97850.69;;;18.91;39.89
74649;BME280;63168;49.280;7.214;2023-04-15T04:06:33;97859.63;;;18.90;39.98
74649;BME280;63168;49.280;7.214;2023-04-15T04:08:58;97854.44;;;18.89;39.55
74649;BME280;63168;49.280;7.214;2023-04-15T04:11:24;97858.81;;;18.90;39.95
74649;BME280;63168;49.280;7.214;2023-04-15T04:13:49;97857.09;;;18.89;39.58
74649;BME280;63168;49.280;7.214;2023-04-15T04:16:16;97857.09;;;18.89;39.52
74649;BME280;63168;49.280;7.214;2023-04-15T04:18:41;97858.94;;;18.88;39.71
74649;BME280;63168;49.280;7.214;2023-04-15T04:21:07;97854.63;;;18.87;39.82
74649;BME280;63168;49.280;7.214;2023-04-15T04:23:32;97853.78;;;18.87;39.91
74649;BME280;63168;49.280;7.214;2023-04-15T04:25:58;97866.22;;;18.86;39.58
74649;BME280;63168;49.280;7.214;2023-04-15T04:28:23;97863.56;;;18.86;39.94
74649;BME280;63168;49.280;7.214;2023-04-15T04:30:48;97860.91;;;18.86;39.82
74649;BME280;63168;49.280;7.214;2023-04-15T04:33:15;97861.91;;;18.85;39.46
74649;BME280;63168;49.280;7.214;2023-04-15T04:35:40;97859.25;;;18.85;39.50
74649;BME280;63168;49.280;7.214;2023-04-15T04:38:06;97862.91;;;18.84;39.93
74649;BME280;63168;49.280;7.214;2023-04-15T04:40:31;97860.25;;;18.84;39.58
74649;BME280;63168;49.280;7.214;2023-04-15T04:42:57;97861.22;;;18.83;39.57
74649;BME280;63168;49.280;7.214;2023-04-15T04:45:22;97861.22;;;18.83;39.49
74649;BME280;63168;49.280;7.214;2023-04-15T04:47:47;97859.56;;;18.82;39.58
74649;BME280;63168;49.280;7.214;2023-04-15T04:50:14;97862.22;;;18.82;39.65
74649;BME280;63168;49.280;7.214;2023-04-15T04:52:40;97861.38;;;18.82;39.90
74649;BME280;63168;49.280;7.214;2023-04-15T04:55:06;97869.50;;;18.80;39.52
74649;BME280;63168;49.280;7.214;2023-04-15T04:57:32;97872.16;;;18.80;39.87
74649;BME280;63168;49.280;7.214;2023-04-15T05:00:00;97872.31;;;18.78;39.47
74649;BME280;63168;49.280;7.214;2023-04-15T05:02:25;97874.97;;;18.78;39.49
74649;BME280;63168;49.280;7.214;2023-04-15T05:04:51;97883.75;;;18.79;39.77
74649;BME280;63168;49.280;7.214;2023-04-15T05:07:19;97882.09;;;18.78;39.42
74649;BME280;63168;49.280;7.214;2023-04-15T05:09:45;97891.72;;;18.79;39.58
74649;BME280;63168;49.280;7.214;2023-04-15T05:12:11;97883.75;;;18.79;39.54
74649;BME280;63168;49.280;7.214;2023-04-15T05:14:39;97893.72;;;18.77;39.44
74649;BME280;63168;49.280;7.214;2023-04-15T05:17:04;97884.75;;;18.78;39.39
74649;BME280;63168;49.280;7.214;2023-04-15T05:19:30;97885.75;;;18.77;39.58
74649;BME280;63168;49.280;7.214;2023-04-15T05:21:55;97885.75;;;18.77;39.54
74649;BME280;63168;49.280;7.214;2023-04-15T05:24:22;97879.59;;;18.76;39.83
74649;BME280;63168;49.280;7.214;2023-04-15T05:26:47;97878.75;;;18.76;39.43
74649;BME280;63168;49.280;7.214;2023-04-15T05:29:13;97880.59;;;18.75;39.38
74649;BME280;63168;49.280;7.214;2023-04-15T05:31:38;97884.06;;;18.76;39.68
74649;BME280;63168;49.280;7.214;2023-04-15T05:34:04;97883.25;;;18.75;39.72
74649;BME280;63168;49.280;7.214;2023-04-15T05:36:29;97877.94;;;18.75;39.82
74649;BME280;63168;49.280;7.214;2023-04-15T05:38:55;97881.41;;;18.76;39.68
74649;BME280;63168;49.280;7.214;2023-04-15T05:41:22;97883.25;;;18.75;39.38
74649;BME280;63168;49.280;7.214;2023-04-15T05:43:47;97878.75;;;18.76;39.58
74649;BME280;63168;49.280;7.214;2023-04-15T05:46:13;97879.59;;;18.76;39.39
74649;BME280;63168;49.280;7.214;2023-04-15T05:48:38;97880.44;;;18.77;39.78
74649;BME280;63168;49.280;7.214;2023-04-15T05:51:04;97877.78;;;18.77;39.32
74649;BME280;63168;49.280;7.214;2023-04-15T05:53:29;97877.63;;;18.78;39.66
74649;BME280;63168;49.280;7.214;2023-04-15T05:55:56;97885.44;;;18.80;39.59
74649;BME280;63168;49.280;7.214;2023-04-15T05:58:22;97890.59;;;18.82;39.56
74649;BME280;63168;49.280;7.214;2023-04-15T06:00:48;97894.09;;;18.82;39.50
74649;BME280;63168;49.280;7.214;2023-04-15T06:03:13;97891.44;;;18.82;39.58
74649;BME280;63168;49.280;7.214;2023-04-15T06:05:39;97896.59;;;18.84;39.63
74649;BME280;63168;49.280;7.214;2023-04-15T06:08:05;97893.09;;;18.83;39.71
74649;BME280;63168;49.280;7.214;2023-04-15T06:10:30;97891.13;;;18.85;39.66
74649;BME280;63168;49.280;7.214;2023-04-15T06:13:00;97884.16;;;18.84;39.57
74649;BME280;63168;49.280;7.214;2023-04-15T06:15:27;97880.66;;;18.84;39.45
74649;BME280;63168;49.280;7.214;2023-04-15T06:17:52;97892.13;;;18.84;39.55
74649;BME280;63168;49.280;7.214;2023-04-15T06:20:18;97886.81;;;18.84;39.71
74649;BME280;63168;49.280;7.214;2023-04-15T06:22:43;97887.47;;;18.86;39.35
74649;BME280;63168;49.280;7.214;2023-04-15T06:25:09;97895.28;;;18.88;39.57
74649;BME280;63168;49.280;7.214;2023-04-15T06:27:35;97897.13;;;18.87;39.48
74649;BME280;63168;49.280;7.214;2023-04-15T06:30:00;97900.44;;;18.89;39.43
74649;BME280;63168;49.280;7.214;2023-04-15T06:32:27;97896.81;;;18.90;39.52
74649;BME280;63168;49.280;7.214;2023-04-15T06:34:52;97901.81;;;18.94;39.45
74649;BME280;63168;49.280;7.214;2023-04-15T06:37:18;97900.16;;;18.93;39.07
74649;BME280;63168;49.280;7.214;2023-04-15T06:39:43;97899.16;;;18.94;39.23
74649;BME280;63168;49.280;7.214;2023-04-15T06:42:09;97906.97;;;18.95;39.47
74649;BME280;63168;49.280;7.214;2023-04-15T06:44:35;97906.13;;;18.95;39.15
74649;BME280;63168;49.280;7.214;2023-04-15T06:47:01;97910.47;;;18.96;39.54
74649;BME280;63168;49.280;7.214;2023-04-15T06:49:28;97908.63;;;18.96;39.45
74649;BME280;63168;49.280;7.214;2023-04-15T06:51:53;97907.69;;;18.97;39.41
74649;BME280;63168;49.280;7.214;2023-04-15T06:54:19;97907.53;;;18.99;39.48
74649;BME280;63168;49.280;7.214;2023-04-15T06:56:45;97906.69;;;18.98;39.49
74649;BME280;63168;49.280;7.214;2023-04-15T06:59:11;97903.72;;;19.01;39.15
74649;BME280;63168;49.280;7.214;2023-04-15T07:01:37;97907.88;;;19.04;39.76
74649;BME280;63168;49.280;7.214;2023-04-15T07:04:02;97907.88;;;19.04;39.49
74649;BME280;63168;49.280;7.214;2023-04-15T07:06:29;97905.91;;;19.06;39.48
74649;BME280;63168;49.280;7.214;2023-04-15T07:08:55;97910.13;;;19.09;39.47
74649;BME280;63168;49.280;7.214;2023-04-15T07:11:20;97913.44;;;19.11;39.02
74649;BME280;63168;49.280;7.214;2023-04-15T07:13:46;97910.78;;;19.11;39.36
74649;BME280;63168;49.280;7.214;2023-04-15T07:16:11;97911.63;;;19.11;39.08
74649;BME280;63168;49.280;7.214;2023-04-15T07:18:37;97914.94;;;19.13;39.36
74649;BME280;63168;49.280;7.214;2023-04-15T07:21:03;97912.28;;;19.13;39.38
74649;BME280;63168;49.280;7.214;2023-04-15T07:23:30;97913.84;;;19.16;39.24
74649;BME280;63168;49.280;7.214;2023-04-15T07:25:55;97915.66;;;19.15;39.04
74649;BME280;63168;49.280;7.214;2023-04-15T07:28:21;97915.66;;;19.15;39.42
74649;BME280;63168;49.280;7.214;2023-04-15T07:30:47;97918.44;;;19.14;39.04
74649;BME280;63168;49.280;7.214;2023-04-15T07:33:12;97911.47;;;19.13;39.15
74649;BME280;63168;49.280;7.214;2023-04-15T07:35:38;97922.91;;;19.13;39.01
74649;BME280;63168;49.280;7.214;2023-04-15T07:38:03;97920.25;;;19.13;39.03
74649;BME280;63168;49.280;7.214;2023-04-15T07:40:30;97922.91;;;19.13;39.41
74649;BME280;63168;49.280;7.214;2023-04-15T07:42:56;97926.44;;;19.14;39.04
74649;BME280;63168;49.280;7.214;2023-04-15T07:45:22;97927.13;;;19.16;39.28
74649;BME280;63168;49.280;7.214;2023-04-15T07:47:48;97924.47;;;19.16;38.89
74649;BME280;63168;49.280;7.214;2023-04-15T07:50:15;97927.94;;;19.16;39.42
74649;BME280;63168;49.280;7.214;2023-04-15T07:52:41;97930.59;;;19.16;39.17
74649;BME280;63168;49.280;7.214;2023-04-15T07:55:07;97929.63;;;19.18;39.40
74649;BME280;63168;49.280;7.214;2023-04-15T07:57:35;97932.28;;;19.18;39.38
74649;BME280;63168;49.280;7.214;2023-04-15T08:00:01;97933.25;;;19.16;39.06
74649;BME280;63168;49.280;7.214;2023-04-15T08:02:28;97937.59;;;19.18;39.17
74649;BME280;63168;49.280;7.214;2023-04-15T08:04:53;97937.59;;;19.18;39.39
74649;BME280;63168;49.280;7.214;2023-04-15T08:07:19;97939.25;;;19.19;39.37
74649;BME280;63168;49.280;7.214;2023-04-15T08:09:44;97940.91;;;19.20;39.39
74649;BME280;63168;49.280;7.214;2023-04-15T08:12:10;97942.75;;;19.19;39.34
74649;BME280;63168;49.280;7.214;2023-04-15T08:14:38;97937.97;;;19.23;39.30
74649;BME280;63168;49.280;7.214;2023-04-15T08:17:04;97941.97;;;19.27;39.31
74649;BME280;63168;49.280;7.214;2023-04-15T08:19:30;97947.69;;;19.32;39.27
74649;BME280;63168;49.280;7.214;2023-04-15T08:21:56;97946.38;;;19.36;39.31
74649;BME280;63168;49.280;7.214;2023-04-15T08:24:21;97950.41;;;19.40;39.78
74649;BME280;63168;49.280;7.214;2023-04-15T08:26:47;97956.38;;;19.42;39.63
74649;BME280;63168;49.280;7.214;2023-04-15T08:29:12;97969.06;;;19.49;42.48
74649;BME280;63168;49.280;7.214;2023-04-15T08:31:39;97962.78;;;19.58;43.55
74649;BME280;63168;49.280;7.214;2023-04-15T08:34:05;97958.84;;;19.62;42.41
74649;BME280;63168;49.280;7.214;2023-04-15T08:36:30;97961.38;;;19.64;42.33
74649;BME280;63168;49.280;7.214;2023-04-15T08:38:56;97959.22;;;19.67;42.71
74649;BME280;63168;49.280;7.214;2023-04-15T08:41:23;97959.91;;;19.70;42.31
74649;BME280;63168;49.280;7.214;2023-04-15T08:43:52;97965.03;;;19.71;42.66
74649;BME280;63168;49.280;7.214;2023-04-15T08:46:18;97968.53;;;19.72;42.09
74649;BME280;63168;49.280;7.214;2023-04-15T08:48:46;97971.06;;;19.73;42.20
74649;BME280;63168;49.280;7.214;2023-04-15T08:51:12;97967.41;;;19.74;41.79
74649;BME280;63168;49.280;7.214;2023-04-15T08:53:40;97968.25;;;19.75;41.19
74649;BME280;63168;49.280;7.214;2023-04-15T08:56:08;97973.41;;;19.76;41.52
74649;BME280;63168;49.280;7.214;2023-04-15T08:58:34;97974.25;;;19.77;41.13
74649;BME280;63168;49.280;7.214;2023-04-15T09:01:00;97976.91;;;19.77;41.38
74649;BME280;63168;49.280;7.214;2023-04-15T09:03:26;97968.94;;;19.77;40.85
74649;BME280;63168;49.280;7.214;2023-04-15T09:05:53;97966.28;;;19.77;40.99
74649;BME280;63168;49.280;7.214;2023-04-15T09:08:19;97975.06;;;19.77;40.86
74649;BME280;63168;49.280;7.214;2023-04-15T09:10:45;97974.25;;;19.77;41.24
74649;BME280;63168;49.280;7.214;2023-04-15T09:13:10;97983.88;;;19.78;40.95
74649;BME280;63168;49.280;7.214;2023-04-15T09:15:37;97986.41;;;19.79;40.83
74649;BME280;63168;49.280;7.214;2023-04-15T09:18:03;97994.38;;;19.79;41.05
74649;BME280;63168;49.280;7.214;2023-04-15T09:20:28;97988.06;;;19.80;41.19
74649;BME280;63168;49.280;7.214;2023-04-15T09:22:55;97989.56;;;19.83;41.63
74649;BME280;63168;49.280;7.214;2023-04-15T09:25:25;97986.75;;;19.85;41.56
74649;BME280;63168;49.280;7.214;2023-04-15T09:27:52;97991.91;;;19.86;41.73
74649;BME280;63168;49.280;7.214;2023-04-15T09:30:18;97996.25;;;19.87;41.99
74649;BME280;63168;49.280;7.214;2023-04-15T09:32:48;97993.28;;;19.90;41.85
74649;BME280;63168;49.280;7.214;2023-04-15T09:35:14;97998.28;;;19.93;42.13
74649;BME280;63168;49.280;7.214;2023-04-15T09:37:40;98007.47;;;19.99;42.20
74649;BME280;63168;49.280;7.214;2023-04-15T09:40:08;97997.69;;;20.00;41.79
74649;BME280;63168;49.280;7.214;2023-04-15T09:42:34;98002.13;;;19.99;41.62
74649;BME280;63168;49.280;7.214;2023-04-15T09:45:07;97997.81;;;19.98;41.12
74649;BME280;63168;49.280;7.214;2023-04-15T09:47:33;97999.63;;;19.98;41.05
74649;BME280;63168;49.280;7.214;2023-04-15T09:49:59;98002.13;;;19.99;41.15
74649;BME280;63168;49.280;7.214;2023-04-15T09:52:25;98000.19;;;20.01;40.54
74649;BME280;63168;49.280;7.214;2023-04-15T09:54:52;98000.19;;;20.01;40.66
74649;BME280;63168;49.280;7.214;2023-04-15T09:57:20;98004.38;;;20.04;41.17
74649;BME280;63168;49.280;7.214;2023-04-15T09:59:46;98006.03;;;20.05;40.61
74649;BME280;63168;49.280;7.214;2023-04-15T10:02:12;98005.88;;;20.07;40.90
74649;BME280;63168;49.280;7.214;2023-04-15T10:04:39;98003.06;;;20.08;40.61
74649;BME280;63168;49.280;7.214;2023-04-15T10:07:07;98011.88;;;20.09;40.87
74649;BME280;63168;49.280;7.214;2023-04-15T10:09:34;98009.38;;;20.07;40.71
74649;BME280;63168;49.280;7.214;2023-04-15T10:12:00;98011.03;;;20.08;40.79
74649;BME280;63168;49.280;7.214;2023-04-15T10:14:31;98007.38;;;20.09;40.69
74649;BME280;63168;49.280;7.214;2023-04-15T10:17:00;98003.72;;;20.10;40.50
74649;BME280;63168;49.280;7.214;2023-04-15T10:19:26;98013.38;;;20.11;40.48
74649;BME280;63168;49.280;7.214;2023-04-15T10:21:55;98015.03;;;20.12;40.62
74649;BME280;63168;49.280;7.214;2023-04-15T10:24:21;98008.72;;;20.13;40.73
74649;BME280;63168;49.280;7.214;2023-04-15T10:26:48;98008.72;;;20.13;40.48
74649;BME280;63168;49.280;7.214;2023-04-15T10:29:15;98003.41;;;20.13;40.28
74649;BME280;63168;49.280;7.214;2023-04-15T10:31:42;98017.41;;;20.15;40.43
74649;BME280;63168;49.280;7.214;2023-04-15T10:34:08;98009.41;;;20.15;40.38
74649;BME280;63168;49.280;7.214;2023-04-15T10:36:35;98013.75;;;20.16;40.19
74649;BME280;63168;49.280;7.214;2023-04-15T10:39:00;98019.06;;;20.16;40.20
74649;BME280;63168;49.280;7.214;2023-04-15T10:41:27;98012.75;;;20.17;40.12
74649;BME280;63168;49.280;7.214;2023-04-15T10:43:59;98021.41;;;20.20;40.25
74649;BME280;63168;49.280;7.214;2023-04-15T10:46:34;98024.06;;;20.20;40.61
74649;BME280;63168;49.280;7.214;2023-04-15T10:49:08;98025.72;;;20.21;40.19
74649;BME280;63168;49.280;7.214;2023-04-15T10:51:36;98020.41;;;20.21;40.20
74649;BME280;63168;49.280;7.214;2023-04-15T10:54:08;98022.09;;;20.22;40.09
74649;BME280;63168;49.280;7.214;2023-04-15T10:56:33;98040.53;;;20.23;40.35
74649;BME280;63168;49.280;7.214;2023-04-15T10:58:59;98039.56;;;20.24;40.21
74649;BME280;63168;49.280;7.214;2023-04-15T11:01:49;98036.06;;;20.24;40.06
74649;BME280;63168;49.280;7.214;2023-04-15T11:04:52;98051.03;;;20.25;39.99
74649;BME280;63168;49.280;7.214;2023-04-15T11:07:33;98053.53;;;20.26;40.08
74649;BME280;63168;49.280;7.214;2023-04-15T11:09:58;98054.56;;;20.25;40.01
74649;BME280;63168;49.280;7.214;2023-04-15T11:12:32;98053.41;;;20.28;39.84
74649;BME280;63168;49.280;7.214;2023-04-15T11:14:59;98064.03;;;20.28;40.27
74649;BME280;63168;49.280;7.214;2023-04-15T11:17:26;98057.06;;;20.27;40.30
74649;BME280;63168;49.280;7.214;2023-04-15T11:19:54;98065.88;;;20.27;40.02
74649;BME280;63168;49.280;7.214;2023-04-15T11:22:19;98072.03;;;20.28;40.29
74649;BME280;63168;49.280;7.214;2023-04-15T11:24:46;98068.56;;;20.27;39.95
74649;BME280;63168;49.280;7.214;2023-04-15T11:27:19;98077.50;;;20.26;39.88
74649;BME280;63168;49.280;7.214;2023-04-15T11:29:45;98073.19;;;20.25;39.87
74649;BME280;63168;49.280;7.214;2023-04-15T11:32:10;98067.72;;;20.27;39.81
74649;BME280;63168;49.280;7.214;2023-04-15T11:34:36;98073.19;;;20.25;40.07
74649;BME280;63168;49.280;7.214;2023-04-15T11:37:04;98083.69;;;20.27;39.74
74649;BME280;63168;49.280;7.214;2023-04-15T11:39:30;98073.88;;;20.27;40.27
74649;BME280;63168;49.280;7.214;2023-04-15T11:41:56;98083.53;;;20.28;40.14
74649;BME280;63168;49.280;7.214;2023-04-15T11:44:21;98088.00;;;20.28;40.11
74649;BME280;63168;49.280;7.214;2023-04-15T11:46:48;98081.69;;;20.29;39.97
74649;BME280;63168;49.280;7.214;2023-04-15T11:49:25;98093.31;;;20.28;40.30
74649;BME280;63168;49.280;7.214;2023-04-15T11:51:50;98088.16;;;20.26;40.08
74649;BME280;63168;49.280;7.214;2023-04-15T11:54:19;98096.13;;;20.26;40.24
74649;BME280;63168;49.280;7.214;2023-04-15T11:56:49;98090.97;;;20.25;39.86
74649;BME280;63168;49.280;7.214;2023-04-15T11:59:14;98094.31;;;20.27;39.77
74649;BME280;63168;49.280;7.214;2023-04-15T12:01:40;98094.31;;;20.27;39.92
74649;BME280;63168;49.280;7.214;2023-04-15T12:04:11;98101.31;;;20.28;39.98
74649;BME280;63168;49.280;7.214;2023-04-15T12:06:37;98094.31;;;20.27;40.22
74649;BME280;63168;49.280;7.214;2023-04-15T12:09:07;98113.81;;;20.27;40.22
74649;BME280;63168;49.280;7.214;2023-04-15T12:11:39;98105.81;;;20.27;39.78
74649;BME280;63168;49.280;7.214;2023-04-15T12:14:08;98108.47;;;20.27;40.07
74649;BME280;63168;49.280;7.214;2023-04-15T12:16:34;98108.63;;;20.26;40.00
74649;BME280;63168;49.280;7.214;2023-04-15T12:19:04;98115.63;;;20.27;39.94
74649;BME280;63168;49.280;7.214;2023-04-15T12:21:33;98126.28;;;20.27;39.79
74649;BME280;63168;49.280;7.214;2023-04-15T12:24:02;98120.94;;;20.27;40.17
74649;BME280;63168;49.280;7.214;2023-04-15T12:26:30;98126.94;;;20.29;40.17
74649;BME280;63168;49.280;7.214;2023-04-15T12:29:01;98137.59;;;20.29;39.82
74649;BME280;63168;49.280;7.214;2023-04-15T12:31:27;98144.75;;;20.28;40.00
74649;BME280;63168;49.280;7.214;2023-04-15T12:33:54;98143.91;;;20.28;39.91
74649;BME280;63168;49.280;7.214;2023-04-15T12:36:19;98132.44;;;20.27;39.96
74649;BME280;63168;49.280;7.214;2023-04-15T12:38:45;98137.75;;;20.27;40.14
74649;BME280;63168;49.280;7.214;2023-04-15T12:41:10;98136.91;;;20.27;40.19
74649;BME280;63168;49.280;7.214;2023-04-15T12:43:36;98138.59;;;20.28;40.20
74649;BME280;63168;49.280;7.214;2023-04-15T12:46:02;98153.56;;;20.29;39.87
74649;BME280;63168;49.280;7.214;2023-04-15T12:48:29;98161.53;;;20.29;39.90
74649;BME280;63168;49.280;7.214;2023-04-15T12:50:54;98166.88;;;20.29;40.15
74649;BME280;63168;49.280;7.214;2023-04-15T12:53:20;98168.72;;;20.28;39.73
74649;BME280;63168;49.280;7.214;2023-04-15T12:55:45;98158.88;;;20.29;39.82